Time;durP1;ratioP1;P1;durP2;ratioP2;P2;SDS_P1;SDS_P2;PMS_P1;PMS_P2;Temp;Humidity;BMP_temperature;BMP_pressure;BME280_temperature;BME280_humidity;BME280_pressure;Samples;Min_cycle;Max_cycle;Signal;HPM_P1;HPM_P2
2022/05/03 00:00:36;;;;;;;1.38;1.27;;;20.90;37.90;;;24.59;24.84;101524.19;6186748;23;20336;-15
2022/05/03 00:03:14;;;;;;;1.33;1.23;;;20.90;37.90;;;24.56;24.92;101532.41;6184685;23;20011;-15
2022/05/03 00:05:57;;;;;;;1.20;1.10;;;20.90;37.90;;;24.58;24.99;101525.13;6187512;23;20020;-15
2022/05/03 00:08:41;;;;;;;1.40;1.10;;;20.80;37.80;;;24.61;24.85;101532.13;6184519;23;20009;-15
2022/05/03 00:11:31;;;;;;;1.00;1.00;;;20.80;38.40;;;24.55;25.04;101513.78;6183244;23;20036;-15
2022/05/03 00:14:06;;;;;;;0.90;0.90;;;20.80;37.80;;;24.56;25.01;101515.53;6184732;23;20028;-15
2022/05/03 00:16:35;;;;;;;1.20;1.10;;;20.80;37.80;;;24.58;25.00;101517.13;6184974;23;20021;-15
2022/05/03 00:19:09;;;;;;;2.03;1.00;;;20.80;37.80;;;24.59;24.76;101516.16;6184704;23;20024;-15
2022/05/03 00:21:37;;;;;;;1.25;1.05;;;20.80;37.80;;;24.54;24.83;101501.34;6184489;23;20013;-15
2022/05/03 00:24:05;;;;;;;0.90;0.88;;;20.80;37.80;;;24.47;25.04;101500.91;6184579;23;20021;-15
2022/05/03 00:26:32;;;;;;;1.70;1.10;;;20.80;37.80;;;24.55;24.96;101505.78;6187047;23;20017;-15
2022/05/03 00:28:58;;;;;;;1.27;1.10;;;20.80;37.80;;;24.59;24.85;101521.50;6184409;23;20013;-15
2022/05/03 00:31:26;;;;;;;1.92;1.10;;;20.80;37.80;;;24.53;24.93;101505.00;6184212;23;20017;-15
2022/05/03 00:33:54;;;;;;;1.52;1.10;;;20.80;37.80;;;24.58;25.11;101513.59;6184394;23;20084;-15
2022/05/03 00:36:21;;;;;;;1.00;1.00;;;20.80;37.90;;;24.55;25.02;101509.28;6185674;23;20403;-15
2022/05/03 00:38:47;;;;;;;0.90;0.90;;;20.90;37.90;;;24.60;24.84;101514.34;6185553;23;20316;-15
2022/05/03 00:41:25;;;;;;;1.70;1.20;;;20.80;37.90;;;24.58;25.14;101509.09;6185509;23;20024;-15
2022/05/03 00:45:00;;;;;;;1.00;0.95;;;20.80;37.80;;;24.57;25.02;101509.19;6211127;23;20013;-15
2022/05/03 00:47:35;;;;;;;1.02;0.93;;;20.80;37.90;;;24.58;25.05;101517.13;6187572;23;20013;-15
2022/05/03 00:50:32;;;;;;;1.20;1.10;;;20.80;37.80;;;24.49;24.88;101500.78;6185465;23;20024;-15
2022/05/03 00:53:09;;;;;;;1.00;0.90;;;20.90;37.90;;;24.58;24.83;101519.78;6185583;23;20469;-15
2022/05/03 00:55:51;;;;;;;1.15;1.05;;;20.80;37.80;;;24.49;24.99;101500.78;6186050;23;20427;-15
2022/05/03 00:58:45;;;;;;;1.70;1.48;;;20.80;37.90;;;24.57;25.03;101515.41;6185618;23;20017;-16
2022/05/03 01:01:34;;;;;;;1.40;1.00;;;20.80;37.90;;;24.55;25.09;101511.13;6185618;23;20021;-15
2022/05/03 01:04:24;;;;;;;0.85;0.85;;;20.80;37.90;;;24.56;25.08;101513.69;6185753;23;20514;-15
2022/05/03 01:06:56;;;;;;;1.00;0.97;;;20.80;37.90;;;24.56;25.08;101504.81;6185907;23;20063;-15
2022/05/03 01:09:33;;;;;;;1.10;1.00;;;20.80;37.90;;;24.55;25.07;101505.78;6185380;23;20079;-15
2022/05/03 01:12:26;;;;;;;1.20;1.10;;;20.80;37.90;;;24.57;25.08;101507.41;6185925;23;20009;-15
2022/05/03 01:15:08;;;;;;;0.75;0.75;;;20.80;37.90;;;24.56;25.08;101512.84;6185503;23;20390;-15
2022/05/03 01:17:51;;;;;;;0.98;0.98;;;20.80;37.90;;;24.56;24.94;101516.38;6185522;23;20392;-15
2022/05/03 01:20:47;;;;;;;0.95;0.85;;;20.80;37.90;;;24.56;24.76;101503.00;6212251;23;20469;-15
2022/05/03 01:24:06;;;;;;;0.90;0.90;;;20.80;37.90;;;24.59;24.98;101500.13;6188585;23;20439;-15
2022/05/03 01:26:54;;;;;;;1.30;1.00;;;20.80;37.90;;;24.57;25.14;101501.19;6185918;23;20105;-15
2022/05/03 01:29:29;;;;;;;1.15;0.90;;;20.80;37.90;;;24.57;24.94;101494.03;6185262;23;20017;-15
2022/05/03 01:31:58;;;;;;;1.70;0.85;;;20.80;37.80;;;24.53;24.78;101489.81;6185838;23;20013;-15
2022/05/03 01:34:27;;;;;;;0.95;0.93;;;20.80;37.90;;;24.50;25.00;101487.34;6185432;23;20009;-15
2022/05/03 01:37:08;;;;;;;1.10;1.00;;;20.80;37.90;;;24.56;24.95;101497.66;6185456;23;20020;-15
2022/05/03 01:40:12;;;;;;;1.17;1.02;;;20.80;37.90;;;24.56;24.83;101494.13;6185433;23;20028;-15
2022/05/03 01:43:26;;;;;;;0.82;0.82;;;20.80;37.90;;;24.54;25.07;101498.66;6183756;23;20013;-16
2022/05/03 01:46:10;;;;;;;1.52;0.95;;;20.80;37.90;;;24.53;25.02;101503.16;6105054;23;20057;-16
2022/05/03 01:52:40;;;;;;;1.30;0.95;;;20.80;37.90;;;24.48;25.02;101480.38;6211550;23;20009;-15
2022/05/03 01:55:30;;;;;;;1.27;1.15;;;20.80;37.90;;;24.52;25.06;101489.91;6213845;23;20021;-15
2022/05/03 01:58:25;;;;;;;1.30;0.80;;;20.80;37.90;;;24.53;24.91;101491.63;6186335;23;20132;-15
2022/05/03 02:01:11;;;;;;;1.50;1.13;;;20.80;37.90;;;24.49;25.13;101482.09;6183516;23;20103;-15
2022/05/03 02:03:48;;;;;;;1.20;1.10;;;20.80;37.90;;;24.52;24.97;101482.72;6183628;23;20019;-15
2022/05/03 02:06:15;;;;;;;1.13;1.00;;;20.80;37.90;;;24.51;24.99;101481.03;6185324;23;20013;-15
2022/05/03 02:08:52;;;;;;;1.23;1.05;;;20.80;37.90;;;24.53;24.72;101483.59;6185899;23;20019;-15
2022/05/03 02:11:40;;;;;;;1.00;0.80;;;20.80;37.90;;;24.52;25.08;101484.56;6208322;23;20056;-15
2022/05/03 02:17:37;;;;;;;0.85;0.85;;;20.80;37.90;;;24.49;25.01;101482.09;6213945;23;20008;-15
2022/05/03 02:21:16;;;;;;;0.70;0.70;;;20.80;37.90;;;24.55;25.02;101489.72;6213626;23;20024;-15
2022/05/03 02:24:36;;;;;;;0.95;0.90;;;20.80;37.90;;;24.54;24.84;101485.31;6041389;23;20026;-15
2022/05/03 02:27:09;;;;;;;0.85;0.85;;;20.70;37.90;;;24.45;25.12;101473.41;6191885;23;20087;-15
2022/05/03 02:29:46;;;;;;;0.85;0.85;;;20.80;37.90;;;24.51;25.05;101482.88;6188720;23;20063;-16
2022/05/03 02:32:22;;;;;;;0.82;0.82;;;20.70;37.80;;;24.46;25.02;101466.25;6209747;23;20070;-15
2022/05/03 02:35:03;;;;;;;1.55;1.10;;;20.80;37.90;;;24.44;25.01;101460.16;6213983;23;20032;-16
2022/05/03 02:37:47;;;;;;;1.00;0.90;;;20.80;37.90;;;24.52;24.92;101479.22;6186433;23;20423;-16
2022/05/03 02:40:19;;;;;;;0.80;0.80;;;20.70;37.80;;;24.49;25.16;101466.03;6185480;23;20017;-15
2022/05/03 02:42:45;;;;;;;0.85;0.82;;;20.70;38.40;;;24.51;25.05;101469.50;6183985;23;20013;-15
2022/05/03 02:45:13;;;;;;;1.35;1.05;;;20.80;37.90;;;24.56;25.00;101470.91;6185581;23;20097;-15
2022/05/03 02:47:59;;;;;;;1.02;1.00;;;20.80;37.80;;;24.57;24.85;101472.66;6210475;23;20020;-15
2022/05/03 02:50:43;;;;;;;0.90;0.90;;;20.80;37.70;;;24.59;24.78;101467.16;6191298;23;20016;-15
2022/05/03 02:53:23;;;;;;;0.80;0.80;;;20.80;37.70;;;24.56;24.86;101462.91;6187898;23;20013;-16
2022/05/03 02:56:08;;;;;;;0.85;0.70;;;20.80;38.30;;;24.59;24.71;101468.03;6183855;23;20028;-16
2022/05/03 02:59:02;;;;;;;0.80;0.80;;;20.90;37.70;;;24.63;24.73;101465.16;6202495;23;20047;-16
2022/05/03 03:01:51;;;;;;;1.10;0.90;;;20.90;37.70;;;24.56;24.95;101449.53;6213253;23;20016;-15
2022/05/03 03:04:28;;;;;;;0.90;0.90;;;20.90;37.70;;;24.65;24.71;101464.09;6213670;23;20366;-16
2022/05/03 03:06:55;;;;;;;1.02;1.02;;;20.90;37.70;;;24.65;24.81;101469.44;6208702;23;20056;-16
2022/05/03 03:09:31;;;;;;;0.80;0.80;;;20.90;37.70;;;24.66;24.82;101463.13;6184744;23;20491;-15
2022/05/03 03:12:04;;;;;;;0.70;0.70;;;20.90;37.60;;;24.65;24.83;101456.06;6185400;23;20013;-15
2022/05/03 03:14:43;;;;;;;0.77;0.77;;;20.90;37.60;;;24.58;24.86;101449.44;6185019;23;20016;-15
2022/05/03 03:17:11;;;;;;;0.90;0.90;;;20.90;37.60;;;24.69;24.64;101457.59;6185393;23;20088;-16
2022/05/03 03:20:14;;;;;;;0.80;0.80;;;20.90;37.60;;;24.70;24.74;101458.44;6184826;23;20091;-16
2022/05/03 03:22:42;;;;;;;1.48;0.80;;;20.90;37.50;;;24.58;24.75;101439.59;6209472;23;20024;-16
2022/05/03 03:25:14;;;;;;;1.00;1.00;;;20.90;37.40;;;24.64;24.71;101446.34;6185993;23;20015;-16
2022/05/03 03:27:43;;;;;;;0.82;0.82;;;21.00;37.40;;;24.67;24.70;101439.91;6185181;23;20013;-16
2022/05/03 03:30:12;;;;;;;0.93;0.80;;;21.00;37.30;;;24.73;24.58;101448.38;6184736;23;20059;-16
2022/05/03 03:32:42;;;;;;;0.90;0.90;;;21.10;37.30;;;24.74;24.73;101441.19;6184791;23;20025;-16
2022/05/03 03:35:08;;;;;;;0.90;0.90;;;21.10;37.30;;;24.75;24.81;101450.94;6184847;23;20016;-16
2022/05/03 03:37:34;;;;;;;1.00;0.90;;;21.10;37.30;;;24.73;24.59;101444.84;6184803;23;20013;-17
2022/05/03 03:40:05;;;;;;;0.77;0.77;;;21.10;37.20;;;24.72;24.64;101440.44;6184854;23;20448;-16
2022/05/03 03:42:31;;;;;;;0.98;0.80;;;21.10;37.30;;;24.77;24.62;101447.22;6184842;23;20435;-16
2022/05/03 03:45:07;;;;;;;0.75;0.75;;;21.10;37.40;;;24.76;24.64;101458.84;6185090;23;20323;-16
2022/05/03 03:47:36;;;;;;;1.10;0.80;;;21.00;37.40;;;24.75;24.54;101458.97;6187242;23;20352;-16
2022/05/03 03:50:05;;;;;;;0.75;0.70;;;21.00;37.40;;;24.72;24.71;101453.81;6184688;23;20463;-16
2022/05/03 03:52:32;;;;;;;0.98;0.90;;;21.00;37.50;;;24.69;24.57;101451.34;6185036;23;20009;-16
2022/05/03 03:54:59;;;;;;;0.75;0.75;;;21.00;37.50;;;24.68;24.61;101453.19;6184726;23;20096;-16
2022/05/03 03:57:25;;;;;;;1.05;0.90;;;20.90;37.50;;;24.69;24.53;101449.56;6184912;23;20009;-16
2022/05/03 03:59:51;;;;;;;0.93;0.90;;;21.00;37.60;;;24.76;24.64;101469.56;6183108;23;20041;-16
2022/05/03 04:02:17;;;;;;;0.80;0.77;;;20.90;37.60;;;24.71;24.68;101461.00;6183371;23;20092;-16
2022/05/03 04:04:44;;;;;;;1.05;0.90;;;20.90;37.60;;;24.73;24.53;101461.75;6184987;23;20426;-16
2022/05/03 04:07:11;;;;;;;0.70;0.70;;;20.90;37.60;;;24.74;24.62;101465.25;6184454;23;20017;-16
2022/05/03 04:09:37;;;;;;;0.82;0.70;;;20.90;37.70;;;24.68;24.79;101460.34;6184581;23;20009;-16
2022/05/03 04:12:04;;;;;;;0.90;0.85;;;20.90;37.60;;;24.71;24.77;101466.34;6185665;23;20308;-16
2022/05/03 04:14:31;;;;;;;0.80;0.80;;;20.90;37.60;;;24.70;24.86;101471.78;6185827;23;20043;-16
2022/05/03 04:16:57;;;;;;;0.80;0.80;;;20.90;37.70;;;24.59;24.88;101457.34;6185916;23;20096;-16
2022/05/03 04:19:24;;;;;;;0.75;0.63;;;20.90;37.70;;;24.64;24.69;101466.84;6185892;23;20013;-16
2022/05/03 04:21:51;;;;;;;0.95;0.95;;;20.80;37.60;;;24.65;24.84;101471.25;6186434;23;20401;-16
2022/05/03 04:24:18;;;;;;;0.75;0.75;;;20.90;37.70;;;24.65;24.77;101466.75;6185687;23;20042;-16
2022/05/03 04:26:44;;;;;;;0.90;0.90;;;20.80;37.60;;;24.58;24.73;101457.44;6185663;23;20009;-16
2022/05/03 04:29:10;;;;;;;0.80;0.80;;;20.90;37.70;;;24.68;24.66;101468.38;6185697;23;20040;-16
2022/05/03 04:31:36;;;;;;;0.75;0.75;;;20.90;37.70;;;24.70;24.83;101471.78;6186326;23;20096;-16
2022/05/03 04:34:04;;;;;;;0.70;0.70;;;20.90;37.70;;;24.64;24.73;101464.19;6186163;23;20017;-16
2022/05/03 04:36:32;;;;;;;2.47;1.10;;;20.90;37.60;;;24.70;24.55;101469.13;6185896;23;20447;-16
2022/05/03 04:39:00;;;;;;;0.80;0.73;;;20.90;37.60;;;24.66;24.71;101462.25;6185638;23;20013;-15
2022/05/03 04:41:26;;;;;;;0.60;0.60;;;20.90;37.60;;;24.71;24.68;101476.19;6186294;23;20017;-15
2022/05/03 04:43:52;;;;;;;0.80;0.80;;;20.90;37.60;;;24.71;24.72;101471.69;6185799;23;20084;-16
2022/05/03 04:46:19;;;;;;;0.85;0.85;;;20.90;37.60;;;24.65;24.71;101463.22;6185764;23;20036;-15
2022/05/03 04:48:44;;;;;;;0.80;0.80;;;20.90;37.60;;;24.63;24.68;101462.50;6185694;23;20013;-15
2022/05/03 04:51:25;;;;;;;0.70;0.70;;;20.90;37.60;;;24.71;24.65;101470.84;6186234;23;20028;-15
2022/05/03 04:53:51;;;;;;;0.87;0.87;;;20.90;37.60;;;24.71;24.69;101476.19;6185750;23;20016;-15
2022/05/03 04:56:18;;;;;;;0.70;0.70;;;20.90;37.60;;;24.67;24.68;101469.31;6185722;23;20020;-15
2022/05/03 04:58:45;;;;;;;0.80;0.80;;;20.90;37.70;;;24.69;24.62;101475.41;6185438;23;20021;-15
2022/05/03 05:01:12;;;;;;;1.70;0.70;;;20.80;37.70;;;24.68;24.74;101482.59;6185583;23;20095;-16
2022/05/03 05:03:38;;;;;;;0.98;0.98;;;20.80;37.70;;;24.62;24.63;101472.31;6186236;23;20013;-15
2022/05/03 05:06:04;;;;;;;1.05;0.88;;;20.80;37.70;;;24.67;24.80;101480.03;6185621;23;20016;-15
2022/05/03 05:08:30;;;;;;;0.73;0.73;;;20.80;37.70;;;24.68;24.63;101484.44;6185438;23;20013;-15
2022/05/03 05:10:56;;;;;;;0.80;0.80;;;20.80;37.70;;;24.66;24.64;101476.50;6185764;23;20363;-15
2022/05/03 05:13:22;;;;;;;0.93;0.90;;;20.80;37.60;;;24.69;24.66;101486.13;6186215;23;20036;-16
2022/05/03 05:15:49;;;;;;;0.80;0.80;;;20.80;37.60;;;24.69;24.58;101495.03;6185809;23;20040;-15
2022/05/03 05:18:16;;;;;;;1.20;0.70;;;20.90;37.60;;;24.68;24.74;101490.63;6185383;23;20474;-15
2022/05/03 05:20:43;;;;;;;1.10;0.98;;;20.90;37.60;;;24.71;24.55;101503.78;6183611;23;20385;-15
2022/05/03 05:23:09;;;;;;;0.82;0.80;;;20.90;37.60;;;24.72;24.57;101499.28;6185988;23;20453;-15
2022/05/03 05:25:34;;;;;;;1.02;0.80;;;20.90;37.60;;;24.72;24.84;101493.94;6185459;23;20009;-16
2022/05/03 05:28:00;;;;;;;0.70;0.70;;;20.90;37.60;;;24.70;24.86;101491.38;6185268;23;20013;-16
2022/05/03 05:30:26;;;;;;;0.93;0.90;;;20.90;37.60;;;24.73;24.76;101495.66;6185250;23;20013;-16
2022/05/03 05:32:52;;;;;;;0.70;0.70;;;20.90;37.60;;;24.68;24.61;101487.09;6188287;23;20016;-16
2022/05/03 05:35:18;;;;;;;0.88;0.88;;;20.90;37.60;;;24.74;24.57;101500.91;6185229;23;20332;-16
2022/05/03 05:37:44;;;;;;;0.80;0.77;;;20.90;37.60;;;24.73;24.68;101491.16;6185432;23;20087;-16
2022/05/03 05:40:10;;;;;;;1.17;0.90;;;20.90;37.60;;;24.74;24.68;101492.88;6185287;23;20024;-16
2022/05/03 05:42:36;;;;;;;0.70;0.70;;;20.90;37.50;;;24.70;24.53;101480.66;6183503;23;20461;-16
2022/05/03 05:45:01;;;;;;;1.40;0.90;;;20.90;37.50;;;24.71;24.64;101481.53;6185269;23;20019;-16
2022/05/03 05:47:27;;;;;;;0.85;0.85;;;20.90;37.50;;;24.70;24.49;101479.81;6185601;23;20016;-16
2022/05/03 05:49:53;;;;;;;1.15;0.80;;;20.90;37.50;;;24.75;24.71;101491.06;6185185;23;20013;-16
2022/05/03 05:55:05;;;;;;;1.00;0.90;;;20.90;37.50;;;24.74;24.61;101489.34;6185563;23;20899;-15
2022/05/03 05:57:30;;;;;;;0.70;0.70;;;20.90;37.50;;;24.74;24.50;101489.34;6185037;23;20044;-15
2022/05/03 05:59:56;;;;;;;0.80;0.80;;;20.90;37.50;;;24.74;24.54;101487.53;6210987;23;20013;-15
2022/05/03 06:02:22;;;;;;;0.70;0.70;;;20.90;37.60;;;24.74;24.76;101490.22;6185621;23;20021;-15
2022/05/03 06:04:48;;;;;;;0.70;0.70;;;20.90;37.50;;;24.73;24.69;101490.31;6184933;23;20009;-15
2022/05/03 06:07:13;;;;;;;0.95;0.80;;;20.90;37.50;;;24.72;24.58;101492.09;6185058;23;20013;-16
2022/05/03 06:09:39;;;;;;;0.77;0.77;;;20.90;37.60;;;24.71;24.67;101486.91;6184908;23;20021;-16
2022/05/03 06:12:05;;;;;;;0.80;0.80;;;20.90;37.50;;;24.70;24.71;101499.38;6185030;23;20158;-15
2022/05/03 06:14:31;;;;;;;0.88;0.80;;;20.80;37.50;;;24.69;24.60;101489.66;6184646;23;20017;-15
2022/05/03 06:16:58;;;;;;;0.90;0.80;;;20.80;37.50;;;24.66;24.61;101494.34;6184969;23;20019;-16
2022/05/03 06:19:24;;;;;;;1.05;0.80;;;20.80;37.50;;;24.66;24.66;101486.31;6184633;23;20017;-15
2022/05/03 06:21:50;;;;;;;0.70;0.70;;;20.80;37.50;;;24.63;24.75;101491.91;6185056;23;20135;-15
2022/05/03 06:24:17;;;;;;;0.68;0.68;;;20.80;37.50;;;24.68;24.77;101495.13;6184855;23;20016;-15
2022/05/03 06:26:44;;;;;;;0.80;0.80;;;20.80;37.50;;;24.67;24.42;101501.41;6184940;23;20402;-16
2022/05/03 06:29:12;;;;;;;0.70;0.70;;;20.90;37.60;;;24.64;24.79;101496.28;6184869;23;20013;-16
2022/05/03 06:31:42;;;;;;;0.60;0.60;;;20.80;37.50;;;24.64;24.78;101497.16;6184939;23;20016;-16
2022/05/03 06:34:08;;;;;;;0.77;0.60;;;20.80;37.50;;;24.69;24.50;101499.50;6185155;23;20009;-16
2022/05/03 06:36:35;;;;;;;0.80;0.80;;;20.90;37.60;;;24.66;24.44;101499.69;6185314;23;20013;-16
2022/05/03 06:39:05;;;;;;;0.65;0.55;;;20.90;37.50;;;24.61;24.54;101494.69;6185432;23;20151;-15
2022/05/03 06:41:31;;;;;;;0.70;0.70;;;20.90;37.50;;;24.74;24.52;101513.41;6185125;23;20013;-16
2022/05/03 06:43:58;;;;;;;0.60;0.60;;;20.90;37.40;;;24.74;24.71;101514.28;6185493;23;20067;-16
2022/05/03 06:46:25;;;;;;;0.90;0.80;;;20.90;37.40;;;24.69;24.60;101508.38;6184728;23;20025;-16
2022/05/03 06:48:51;;;;;;;1.00;0.88;;;20.90;37.40;;;24.72;24.57;101518.84;6185273;23;20035;-16
2022/05/03 06:51:17;;;;;;;0.73;0.73;;;21.00;37.40;;;24.71;24.50;101510.97;6185163;23;20027;-16
2022/05/03 06:53:43;;;;;;;0.80;0.80;;;20.90;37.40;;;24.73;24.68;101511.72;6184807;23;20044;-16
2022/05/03 06:56:08;;;;;;;0.68;0.68;;;20.90;37.40;;;24.71;24.54;101521.66;6184793;23;20020;-16
2022/05/03 06:58:34;;;;;;;0.63;0.60;;;21.00;37.40;;;24.78;24.49;101537.16;6185038;23;20049;-16
2022/05/03 07:01:14;;;;;;;1.00;0.90;;;21.00;37.40;;;24.69;24.47;101511.06;6184630;23;20021;-16
2022/05/03 07:03:41;;;;;;;0.85;0.60;;;21.00;37.40;;;24.78;24.73;101533.66;6184863;23;20009;-16
2022/05/03 07:06:08;;;;;;;0.57;0.57;;;20.90;37.30;;;24.78;24.53;101539.00;6184849;23;20122;-16
2022/05/03 07:08:35;;;;;;;0.70;0.70;;;21.00;37.40;;;24.78;24.64;101544.34;6184608;23;20020;-16
2022/05/03 07:11:02;;;;;;;0.60;0.60;;;20.90;37.40;;;24.70;24.52;101526.13;6185266;23;20020;-16
2022/05/03 07:13:28;;;;;;;0.80;0.80;;;21.00;37.40;;;24.76;24.55;101541.78;6184647;23;20037;-16
2022/05/03 07:15:56;;;;;;;0.70;0.70;;;21.00;37.40;;;24.69;24.47;101529.78;6183578;23;20091;-16
2022/05/03 07:23:53;;;;;;;0.80;0.80;;;20.90;37.40;;;24.68;24.79;101532.56;6207845;23;20013;-16
2022/05/03 07:26:22;;;;;;;0.80;0.70;;;20.90;37.50;;;24.68;24.69;101546.78;6185478;23;20431;-16
2022/05/03 07:28:48;;;;;;;1.48;0.80;;;20.90;37.40;;;24.68;24.65;101541.44;6183041;23;20019;-16
2022/05/03 07:31:16;;;;;;;0.82;0.70;;;20.90;37.40;;;24.65;24.72;101538.94;6185180;23;20009;-16
2022/05/03 07:33:42;;;;;;;0.77;0.70;;;20.90;37.40;;;24.66;24.68;101537.13;6184467;23;20036;-16
2022/05/03 07:36:09;;;;;;;0.85;0.63;;;20.90;37.40;;;24.69;24.50;101539.59;6184680;23;20006;-16
2022/05/03 07:38:35;;;;;;;0.88;0.80;;;20.90;37.40;;;24.76;24.70;101549.78;6184456;23;20009;-16
2022/05/03 07:41:01;;;;;;;0.68;0.68;;;20.90;37.30;;;24.74;24.52;101540.16;6184503;23;20094;-16
2022/05/03 07:43:27;;;;;;;0.82;0.60;;;21.00;37.30;;;24.73;24.44;101538.44;6184293;23;20021;-16
2022/05/03 07:45:54;;;;;;;0.60;0.60;;;21.00;37.30;;;24.80;24.58;101550.44;6183410;23;20063;-16
2022/05/03 07:48:21;;;;;;;0.70;0.70;;;21.00;37.30;;;24.78;24.55;101544.34;6184208;23;20317;-17
2022/05/03 07:50:47;;;;;;;0.60;0.60;;;20.90;37.20;;;24.75;24.54;101540.03;6182367;23;20009;-16
2022/05/03 07:53:14;;;;;;;0.50;0.50;;;21.00;37.30;;;24.76;24.28;101541.78;6184253;23;20083;-16
2022/05/03 07:55:43;;;;;;;0.70;0.70;;;21.00;37.30;;;24.80;24.39;101550.44;6187398;23;20017;-16
2022/05/03 07:58:09;;;;;;;0.70;0.70;;;21.00;37.30;;;24.78;24.43;101544.34;6184004;23;20511;-15
2022/05/03 08:00:35;;;;;;;0.82;0.80;;;21.00;37.30;;;24.84;24.36;101561.78;6184032;23;20025;-16
2022/05/03 08:03:01;;;;;;;0.77;0.77;;;21.00;37.30;;;24.83;24.31;101554.75;6184505;23;20037;-16
2022/05/03 08:05:27;;;;;;;0.73;0.73;;;21.00;37.30;;;24.79;24.45;101556.72;6184543;23;20009;-16
2022/05/03 08:07:53;;;;;;;0.70;0.70;;;20.90;37.20;;;24.79;24.37;101554.06;6184121;23;20020;-16
2022/05/03 08:10:19;;;;;;;0.60;0.60;;;21.00;37.30;;;24.79;24.56;101559.41;6183927;23;20040;-16
2022/05/03 08:12:50;;;;;;;1.27;0.82;;;21.00;37.30;;;24.81;24.35;101556.63;6183718;23;20016;-16
2022/05/03 08:15:17;;;;;;;;;;;21.00;37.20;;;24.94;24.44;101557.53;6184641;23;20032;-16
2022/05/03 08:17:44;;;;;;;0.77;0.77;;;21.00;37.20;;;24.89;24.38;101570.34;6184358;23;19923;-17
2022/05/03 08:20:11;;;;;;;0.98;0.80;;;21.00;37.20;;;24.83;24.42;101566.28;6183843;23;20060;-16
2022/05/03 08:22:37;;;;;;;0.70;0.68;;;21.00;37.20;;;24.84;24.35;101573.34;6184215;23;20009;-16
2022/05/03 08:25:04;;;;;;;0.82;0.82;;;21.00;37.20;;;24.79;24.29;101572.78;6207181;23;20438;-16
2022/05/03 08:27:30;;;;;;;0.90;0.80;;;21.00;37.20;;;24.85;24.32;101574.22;6186856;23;20014;-16
2022/05/03 08:29:56;;;;;;;0.90;0.70;;;21.00;37.30;;;24.78;24.51;101569.25;6184157;23;20013;-16
2022/05/03 08:32:22;;;;;;;0.70;0.70;;;21.00;37.30;;;24.81;24.34;101578.91;6184055;23;20474;-16
2022/05/03 08:34:48;;;;;;;1.23;0.70;;;21.00;37.30;;;24.74;24.46;101567.78;6184317;23;20021;-16
2022/05/03 08:42:43;;;;;;;0.95;0.75;;;20.90;37.20;;;24.76;24.38;101581.88;6183816;23;20017;-16
2022/05/03 08:45:09;;;;;;;0.75;0.75;;;21.00;37.30;;;24.75;24.36;101579.31;6208244;23;20023;-16
2022/05/03 08:47:37;;;;;;;0.70;0.70;;;21.00;37.20;;;24.83;24.56;101590.34;6185890;23;20020;-16
2022/05/03 08:50:08;;;;;;;0.82;0.70;;;21.00;37.20;;;24.84;24.55;101594.75;6183910;23;20016;-16
2022/05/03 08:52:54;;;;;;;0.70;0.70;;;21.00;37.20;;;24.85;24.42;101593.78;6186397;23;20067;-16
2022/05/03 08:55:21;;;;;;;0.80;0.80;;;21.00;37.70;;;24.85;24.37;101577.72;6183851;23;20466;-16
2022/05/03 08:57:48;;;;;;;0.80;0.80;;;21.10;37.20;;;24.92;24.28;101595.06;6188012;23;20155;-16
2022/05/03 09:00:15;;;;;;;0.90;0.80;;;21.10;37.10;;;24.93;24.34;101590.59;6183587;23;20017;-16
2022/05/03 09:02:47;;;;;;;0.82;0.80;;;21.10;37.10;;;24.95;24.30;101599.38;6185097;23;20013;-16
2022/05/03 09:05:13;;;;;;;;;;;21.20;37.10;;;25.09;24.27;101591.28;6186065;23;20031;-16
2022/05/03 09:07:47;;;;;;;0.70;0.60;;;21.10;37.00;;;24.97;24.26;101581.41;6208642;23;20026;-16
2022/05/03 09:10:20;;;;;;;0.80;0.80;;;21.20;37.00;;;25.04;24.32;101590.75;6185767;23;20447;-16
2022/05/03 09:12:49;;;;;;;1.15;0.70;;;21.20;37.00;;;24.95;24.26;101577.97;6185146;23;20088;-16
2022/05/03 09:15:30;;;;;;;0.95;0.80;;;21.20;37.00;;;25.02;24.29;101592.63;6185550;23;20024;-16
2022/05/03 09:17:56;;;;;;;;;;;21.20;36.90;;;25.15;24.12;101588.16;6185785;23;20016;-16
2022/05/03 09:26:23;;;;;;;0.60;0.60;;;21.30;37.00;;;25.04;24.27;101590.75;6212536;23;20008;-16
2022/05/03 09:28:59;;;;;;;2.97;0.82;;;21.30;36.90;;;25.09;24.19;101599.31;6185434;23;20012;-16
2022/05/03 09:31:41;;;;;;;1.75;0.98;;;21.30;36.90;;;25.11;24.15;101604.56;6187069;23;20021;-16
2022/05/03 09:34:23;;;;;;;0.70;0.70;;;21.30;37.40;;;25.04;24.16;101587.19;6185683;23;20017;-16
2022/05/03 09:37:05;;;;;;;;;;;21.20;36.90;;;25.21;24.10;101586.03;6185925;23;20009;-16
2022/05/03 09:39:43;;;;;;;0.70;0.70;;;21.20;36.90;;;25.14;24.06;101591.81;6184559;23;19912;-16
2022/05/03 09:42:18;;;;;;;0.80;0.80;;;21.30;36.90;;;25.07;24.30;101582.47;6185088;23;20092;-16
2022/05/03 09:44:50;;;;;;;1.33;0.75;;;21.30;36.90;;;25.14;24.24;101597.16;6183551;23;20092;-16
2022/05/03 09:47:18;;;;;;;0.90;0.73;;;21.30;36.90;;;25.06;24.14;101583.47;6184956;23;20020;-16
2022/05/03 09:49:44;;;;;;;0.70;0.70;;;21.30;36.80;;;25.11;24.19;101585.81;6185544;23;20040;-16
2022/05/03 09:52:29;;;;;;;0.60;0.60;;;21.30;36.80;;;25.17;24.03;101592.56;6184917;23;20447;-16
2022/05/03 09:55:11;;;;;;;0.75;0.70;;;21.30;36.80;;;25.10;24.12;101590.31;6185064;23;20040;-16
2022/05/03 09:57:40;;;;;;;1.17;0.80;;;21.30;36.80;;;25.11;24.11;101578.66;6184677;23;20017;-16
2022/05/03 10:00:17;;;;;;;1.00;0.90;;;21.30;36.80;;;25.13;24.17;101583.91;6183510;23;20013;-16
2022/05/03 10:02:44;;;;;;;0.80;0.80;;;21.30;36.90;;;25.16;24.00;101583.69;6187330;23;20467;-16
2022/05/03 10:05:11;;;;;;;1.73;0.82;;;21.30;36.80;;;25.13;24.01;101584.75;6184778;23;20080;-17
2022/05/03 10:07:40;;;;;;;0.60;0.60;;;21.30;36.80;;;25.21;23.97;101589.59;6181702;23;20016;-17
2022/05/03 10:10:08;;;;;;;0.90;0.90;;;21.30;36.80;;;25.16;24.06;101578.34;6182818;23;20431;-16
2022/05/03 10:12:36;;;;;;;0.60;0.60;;;21.30;36.80;;;25.22;24.04;101588.59;6184492;23;20469;-16
2022/05/03 10:15:04;;;;;;;1.02;0.70;;;21.30;36.80;;;25.19;23.99;101571.91;6182523;23;20013;-17
2022/05/03 10:20:40;;;;;;;1.15;0.70;;;21.30;36.80;;;25.19;23.89;101563.88;6209837;23;20034;-16
2022/05/03 10:23:23;;;;;;;1.60;0.68;;;21.30;36.80;;;25.14;24.00;101554.34;6213204;23;20096;-16
2022/05/03 10:26:09;;;;;;;0.95;0.75;;;21.30;36.80;;;25.21;24.17;101578.00;6212876;23;20017;-16
2022/05/03 10:29:09;;;;;;;1.08;0.80;;;21.30;36.80;;;25.21;24.18;101568.16;6186858;23;20462;-16
2022/05/03 10:32:04;;;;;;;0.70;0.70;;;21.30;36.80;;;25.14;24.10;101559.72;6186722;23;20099;-16
2022/05/03 10:34:59;;;;;;;0.60;0.60;;;21.30;36.70;;;25.21;23.99;101569.97;6182841;23;20040;-15
2022/05/03 10:37:33;;;;;;;0.70;0.70;;;21.30;36.70;;;25.18;24.12;101565.69;6211701;23;20154;-15
2022/05/03 10:40:07;;;;;;;1.98;1.10;;;21.30;36.70;;;25.20;24.00;101562.91;6185303;23;20019;-15
2022/05/03 10:42:33;;;;;;;1.52;0.70;;;21.40;36.70;;;25.23;24.06;101563.56;6184536;23;20088;-16
2022/05/03 10:45:05;;;;;;;1.40;0.88;;;21.30;36.60;;;25.21;24.03;101568.16;6184557;23;20044;-16
2022/05/03 10:48:01;;;;;;;0.80;0.80;;;21.30;36.70;;;25.24;24.15;101564.41;6184638;23;20446;-16
2022/05/03 10:50:33;;;;;;;2.10;1.02;;;21.30;36.60;;;25.17;24.12;101549.75;6187172;23;20024;-16
2022/05/03 10:52:58;;;;;;;1.10;1.00;;;21.30;36.70;;;25.24;23.93;101569.75;6213188;23;20016;-16
2022/05/03 10:55:35;;;;;;;1.17;0.85;;;21.30;36.60;;;25.20;24.03;101566.44;6186791;23;20125;-16
2022/05/03 10:58:25;;;;;;;1.02;0.90;;;21.30;36.70;;;25.18;24.04;101551.47;6184668;23;20009;-17
2022/05/03 11:01:21;;;;;;;1.05;0.85;;;21.30;36.60;;;25.21;24.05;101553.91;6206846;23;20355;-16
2022/05/03 11:03:57;;;;;;;1.58;1.00;;;21.30;36.60;;;25.24;23.99;101562.63;6185142;23;20152;-17
2022/05/03 11:06:23;;;;;;;1.52;0.93;;;21.40;36.60;;;25.25;24.00;101561.63;6181706;23;20015;-18